sensor_id;sensor_type;location;lat;lon;timestamp;temperature;humidity
1417;DHT22;703;51.162;13.574;2023-11-21T00:02:11;7.50;99.90
1417;DHT22;703;51.162;13.574;2023-11-21T00:04:37;7.40;99.90
1417;DHT22;703;51.162;13.574;2023-11-21T00:07:03;7.40;99.90
1417;DHT22;703;51.162;13.574;2023-11-21T00:09:28;7.50;99.90
1417;DHT22;703;51.162;13.574;2023-11-21T00:11:54;7.40;99.90
1417;DHT22;703;51.162;13.574;2023-11-21T00:14:19;7.40;99.90
1417;DHT22;703;51.162;13.574;2023-11-21T00:16:45;7.40;99.90
1417;DHT22;703;51.162;13.574;2023-11-21T00:19:11;7.40;99.90
1417;DHT22;703;51.162;13.574;2023-11-21T00:21:37;7.40;99.90
1417;DHT22;703;51.162;13.574;2023-11-21T00:24:02;7.40;99.90
1417;DHT22;703;51.162;13.574;2023-11-21T00:26:28;7.40;99.90
1417;DHT22;703;51.162;13.574;2023-11-21T00:28:54;7.50;99.90
1417;DHT22;703;51.162;13.574;2023-11-21T00:31:20;7.50;99.90
1417;DHT22;703;51.162;13.574;2023-11-21T00:33:45;7.40;99.90
1417;DHT22;703;51.162;13.574;2023-11-21T00:36:10;7.40;99.90
1417;DHT22;703;51.162;13.574;2023-11-21T00:38:36;7.40;99.90
1417;DHT22;703;51.162;13.574;2023-11-21T00:41:05;7.40;99.90
1417;DHT22;703;51.162;13.574;2023-11-21T00:43:31;7.30;99.90
1417;DHT22;703;51.162;13.574;2023-11-21T00:45:59;7.30;99.90
1417;DHT22;703;51.162;13.574;2023-11-21T00:48:24;7.30;99.90
1417;DHT22;703;51.162;13.574;2023-11-21T00:50:49;7.30;99.90
1417;DHT22;703;51.162;13.574;2023-11-21T00:53:15;7.40;99.90
1417;DHT22;703;51.162;13.574;2023-11-21T00:55:41;7.30;99.90
1417;DHT22;703;51.162;13.574;2023-11-21T00:58:07;7.40;99.90
1417;DHT22;703;51.162;13.574;2023-11-21T01:00:33;7.40;99.90
1417;DHT22;703;51.162;13.574;2023-11-21T01:02:59;7.50;99.90
1417;DHT22;703;51.162;13.574;2023-11-21T01:05:25;7.40;99.90
1417;DHT22;703;51.162;13.574;2023-11-21T01:07:50;7.40;99.90
1417;DHT22;703;51.162;13.574;2023-11-21T01:10:16;7.50;99.90
1417;DHT22;703;51.162;13.574;2023-11-21T01:12:42;7.50;99.90
1417;DHT22;703;51.162;13.574;2023-11-21T01:15:08;7.60;99.90
1417;DHT22;703;51.162;13.574;2023-11-21T01:17:34;7.60;99.90
1417;DHT22;703;51.162;13.574;2023-11-21T01:20:00;7.50;99.90
1417;DHT22;703;51.162;13.574;2023-11-21T01:22:26;7.40;99.90
1417;DHT22;703;51.162;13.574;2023-11-21T01:24:53;7.40;99.90
1417;DHT22;703;51.162;13.574;2023-11-21T01:27:18;7.50;99.90
1417;DHT22;703;51.162;13.574;2023-11-21T01:29:44;7.50;99.90
1417;DHT22;703;51.162;13.574;2023-11-21T01:32:10;7.40;99.90
1417;DHT22;703;51.162;13.574;2023-11-21T01:34:35;7.40;99.90
1417;DHT22;703;51.162;13.574;2023-11-21T01:37:01;7.40;99.90
1417;DHT22;703;51.162;13.574;2023-11-21T01:39:30;7.40;99.90
1417;DHT22;703;51.162;13.574;2023-11-21T01:41:55;7.40;99.90
1417;DHT22;703;51.162;13.574;2023-11-21T01:44:22;7.20;99.90
1417;DHT22;703;51.162;13.574;2023-11-21T01:46:49;7.20;99.90
1417;DHT22;703;51.162;13.574;2023-11-21T01:49:16;7.10;99.90
1417;DHT22;703;51.162;13.574;2023-11-21T01:51:44;7.20;99.90
1417;DHT22;703;51.162;13.574;2023-11-21T01:54:11;7.10;99.90
1417;DHT22;703;51.162;13.574;2023-11-21T01:56:37;7.10;99.90
1417;DHT22;703;51.162;13.574;2023-11-21T01:59:03;7.20;99.90
1417;DHT22;703;51.162;13.574;2023-11-21T02:01:28;7.20;99.90
1417;DHT22;703;51.162;13.574;2023-11-21T02:03:54;7.20;99.90
1417;DHT22;703;51.162;13.574;2023-11-21T02:06:21;7.20;99.90
1417;DHT22;703;51.162;13.574;2023-11-21T02:08:47;7.20;99.90
1417;DHT22;703;51.162;13.574;2023-11-21T02:11:12;7.30;99.90
1417;DHT22;703;51.162;13.574;2023-11-21T02:13:38;7.30;99.90
1417;DHT22;703;51.162;13.574;2023-11-21T02:16:09;7.10;99.90
1417;DHT22;703;51.162;13.574;2023-11-21T02:18:35;7.20;99.90
1417;DHT22;703;51.162;13.574;2023-11-21T02:21:04;7.20;99.90
1417;DHT22;703;51.162;13.574;2023-11-21T02:23:29;7.20;99.90
1417;DHT22;703;51.162;13.574;2023-11-21T02:25:55;7.10;99.90
1417;DHT22;703;51.162;13.574;2023-11-21T02:28:20;7.20;99.90
1417;DHT22;703;51.162;13.574;2023-11-21T02:30:51;7.30;99.90
1417;DHT22;703;51.162;13.574;2023-11-21T02:33:21;7.20;99.90
1417;DHT22;703;51.162;13.574;2023-11-21T02:35:46;7.10;99.90
1417;DHT22;703;51.162;13.574;2023-11-21T02:38:12;7.20;99.90
1417;DHT22;703;51.162;13.574;2023-11-21T02:40:38;7.20;99.90
1417;DHT22;703;51.162;13.574;2023-11-21T02:43:03;7.20;99.90
1417;DHT22;703;51.162;13.574;2023-11-21T02:45:31;7.00;99.90
1417;DHT22;703;51.162;13.574;2023-11-21T02:47:57;6.90;99.90
1417;DHT22;703;51.162;13.574;2023-11-21T02:50:22;6.90;99.90
1417;DHT22;703;51.162;13.574;2023-11-21T02:52:48;6.90;99.90
1417;DHT22;703;51.162;13.574;2023-11-21T02:55:14;7.00;99.90
1417;DHT22;703;51.162;13.574;2023-11-21T02:57:40;7.00;99.90
1417;DHT22;703;51.162;13.574;2023-11-21T03:00:06;7.00;99.90
1417;DHT22;703;51.162;13.574;2023-11-21T03:02:33;7.00;99.90
1417;DHT22;703;51.162;13.574;2023-11-21T03:05:02;7.00;99.90
1417;DHT22;703;51.162;13.574;2023-11-21T03:07:27;7.00;99.90
1417;DHT22;703;51.162;13.574;2023-11-21T03:09:53;7.10;99.90
1417;DHT22;703;51.162;13.574;2023-11-21T03:12:18;7.10;99.90
1417;DHT22;703;51.162;13.574;2023-11-21T03:14:44;7.00;99.90
1417;DHT22;703;51.162;13.574;2023-11-21T03:17:10;6.90;99.90
1417;DHT22;703;51.162;13.574;2023-11-21T03:22:03;7.00;99.90
1417;DHT22;703;51.162;13.574;2023-11-21T03:24:29;7.10;99.90
1417;DHT22;703;51.162;13.574;2023-11-21T03:26:55;7.20;99.90
1417;DHT22;703;51.162;13.574;2023-11-21T03:29:20;7.20;99.90
1417;DHT22;703;51.162;13.574;2023-11-21T03:31:46;7.10;99.90
1417;DHT22;703;51.162;13.574;2023-11-21T03:34:24;7.10;99.90
1417;DHT22;703;51.162;13.574;2023-11-21T03:36:51;7.20;99.90
1417;DHT22;703;51.162;13.574;2023-11-21T03:39:18;7.10;99.90
1417;DHT22;703;51.162;13.574;2023-11-21T03:41:44;7.10;99.90
1417;DHT22;703;51.162;13.574;2023-11-21T03:44:09;7.10;99.90
1417;DHT22;703;51.162;13.574;2023-11-21T03:46:35;7.10;99.90
1417;DHT22;703;51.162;13.574;2023-11-21T03:49:01;7.20;99.90
1417;DHT22;703;51.162;13.574;2023-11-21T03:51:26;7.10;99.90
1417;DHT22;703;51.162;13.574;2023-11-21T03:53:52;7.20;99.90
1417;DHT22;703;51.162;13.574;2023-11-21T03:56:18;7.20;99.90
1417;DHT22;703;51.162;13.574;2023-11-21T03:58:43;7.30;99.90
1417;DHT22;703;51.162;13.574;2023-11-21T04:01:09;7.20;99.90
1417;DHT22;703;51.162;13.574;2023-11-21T04:03:34;7.10;99.90
1417;DHT22;703;51.162;13.574;2023-11-21T04:06:00;7.20;99.90
1417;DHT22;703;51.162;13.574;2023-11-21T04:08:26;7.10;99.90
1417;DHT22;703;51.162;13.574;2023-11-21T04:10:51;7.10;99.90
1417;DHT22;703;51.162;13.574;2023-11-21T04:13:19;7.10;99.90
1417;DHT22;703;51.162;13.574;2023-11-21T04:15:44;7.10;99.90
1417;DHT22;703;51.162;13.574;2023-11-21T04:18:09;7.10;99.90
1417;DHT22;703;51.162;13.574;2023-11-21T04:20:35;7.10;99.90
1417;DHT22;703;51.162;13.574;2023-11-21T04:23:01;7.10;99.90
1417;DHT22;703;51.162;13.574;2023-11-21T04:25:26;7.00;99.90
1417;DHT22;703;51.162;13.574;2023-11-21T04:27:53;7.00;99.90
1417;DHT22;703;51.162;13.574;2023-11-21T04:30:19;7.00;99.90
1417;DHT22;703;51.162;13.574;2023-11-21T04:32:46;6.90;99.90
1417;DHT22;703;51.162;13.574;2023-11-21T04:35:11;7.00;99.90
1417;DHT22;703;51.162;13.574;2023-11-21T04:37:37;7.00;99.90
1417;DHT22;703;51.162;13.574;2023-11-21T04:40:03;7.00;99.90
1417;DHT22;703;51.162;13.574;2023-11-21T04:42:36;7.10;99.90
1417;DHT22;703;51.162;13.574;2023-11-21T04:45:03;7.10;99.90
1417;DHT22;703;51.162;13.574;2023-11-21T04:47:32;7.00;99.90
1417;DHT22;703;51.162;13.574;2023-11-21T04:49:58;7.10;99.90
1417;DHT22;703;51.162;13.574;2023-11-21T04:52:23;7.10;99.90
1417;DHT22;703;51.162;13.574;2023-11-21T04:54:49;7.10;99.90
1417;DHT22;703;51.162;13.574;2023-11-21T04:57:14;7.10;99.90
1417;DHT22;703;51.162;13.574;2023-11-21T04:59:40;7.00;99.90
1417;DHT22;703;51.162;13.574;2023-11-21T05:02:06;7.10;99.90
1417;DHT22;703;51.162;13.574;2023-11-21T05:04:31;7.10;99.90
1417;DHT22;703;51.162;13.574;2023-11-21T05:06:57;7.10;99.90
1417;DHT22;703;51.162;13.574;2023-11-21T05:09:22;7.10;99.90
1417;DHT22;703;51.162;13.574;2023-11-21T05:11:48;7.10;99.90
1417;DHT22;703;51.162;13.574;2023-11-21T05:14:13;7.10;99.90
1417;DHT22;703;51.162;13.574;2023-11-21T05:16:39;7.10;99.90
1417;DHT22;703;51.162;13.574;2023-11-21T05:19:04;7.10;99.90
1417;DHT22;703;51.162;13.574;2023-11-21T05:21:31;7.10;99.90
1417;DHT22;703;51.162;13.574;2023-11-21T05:23:58;7.00;99.90
1417;DHT22;703;51.162;13.574;2023-11-21T05:26:23;7.20;99.90
1417;DHT22;703;51.162;13.574;2023-11-21T05:28:49;7.10;99.90
1417;DHT22;703;51.162;13.574;2023-11-21T05:31:15;7.10;99.90
1417;DHT22;703;51.162;13.574;2023-11-21T05:33:41;7.10;99.90
1417;DHT22;703;51.162;13.574;2023-11-21T05:36:07;7.10;99.90
1417;DHT22;703;51.162;13.574;2023-11-21T05:38:33;7.10;99.90
1417;DHT22;703;51.162;13.574;2023-11-21T05:40:59;7.00;99.90
1417;DHT22;703;51.162;13.574;2023-11-21T05:43:24;7.10;99.90
1417;DHT22;703;51.162;13.574;2023-11-21T05:45:50;7.00;99.90
1417;DHT22;703;51.162;13.574;2023-11-21T05:48:15;7.00;99.90
1417;DHT22;703;51.162;13.574;2023-11-21T05:50:41;7.00;99.90
1417;DHT22;703;51.162;13.574;2023-11-21T05:53:06;8.70;99.90
1417;DHT22;703;51.162;13.574;2023-11-21T05:55:32;7.00;99.90
1417;DHT22;703;51.162;13.574;2023-11-21T05:57:58;6.90;99.90
1417;DHT22;703;51.162;13.574;2023-11-21T06:00:25;7.00;99.90
1417;DHT22;703;51.162;13.574;2023-11-21T06:02:52;7.00;99.90
1417;DHT22;703;51.162;13.574;2023-11-21T06:05:19;7.00;99.90
1417;DHT22;703;51.162;13.574;2023-11-21T06:07:45;7.00;99.90
1417;DHT22;703;51.162;13.574;2023-11-21T06:10:12;7.00;99.90
1417;DHT22;703;51.162;13.574;2023-11-21T06:12:43;7.00;99.90
1417;DHT22;703;51.162;13.574;2023-11-21T06:15:09;7.10;99.90
1417;DHT22;703;51.162;13.574;2023-11-21T06:17:39;7.00;99.90
1417;DHT22;703;51.162;13.574;2023-11-21T06:20:09;7.00;99.90
1417;DHT22;703;51.162;13.574;2023-11-21T06:22:38;7.00;99.90
1417;DHT22;703;51.162;13.574;2023-11-21T06:25:05;7.00;99.90
1417;DHT22;703;51.162;13.574;2023-11-21T06:27:32;7.00;99.90
1417;DHT22;703;51.162;13.574;2023-11-21T06:29:58;7.00;99.90
1417;DHT22;703;51.162;13.574;2023-11-21T06:32:23;7.00;99.90
1417;DHT22;703;51.162;13.574;2023-11-21T06:34:49;7.00;99.90
1417;DHT22;703;51.162;13.574;2023-11-21T06:37:15;7.00;99.90
1417;DHT22;703;51.162;13.574;2023-11-21T06:39:40;7.10;99.90
1417;DHT22;703;51.162;13.574;2023-11-21T06:42:06;7.00;99.90
1417;DHT22;703;51.162;13.574;2023-11-21T06:44:32;7.00;99.90
1417;DHT22;703;51.162;13.574;2023-11-21T06:46:58;6.90;99.90
1417;DHT22;703;51.162;13.574;2023-11-21T06:49:24;6.90;99.90
1417;DHT22;703;51.162;13.574;2023-11-21T06:51:50;7.00;99.90
1417;DHT22;703;51.162;13.574;2023-11-21T06:54:15;7.00;99.90
1417;DHT22;703;51.162;13.574;2023-11-21T06:56:41;7.00;99.90
1417;DHT22;703;51.162;13.574;2023-11-21T06:59:06;7.10;99.90
1417;DHT22;703;51.162;13.574;2023-11-21T07:01:32;7.10;99.90
1417;DHT22;703;51.162;13.574;2023-11-21T07:04:04;7.10;99.90
1417;DHT22;703;51.162;13.574;2023-11-21T07:06:30;7.10;99.90
1417;DHT22;703;51.162;13.574;2023-11-21T07:08:55;7.00;99.90
1417;DHT22;703;51.162;13.574;2023-11-21T07:11:21;7.10;99.90
1417;DHT22;703;51.162;13.574;2023-11-21T07:13:46;7.10;99.90
1417;DHT22;703;51.162;13.574;2023-11-21T07:16:12;7.10;99.90
1417;DHT22;703;51.162;13.574;2023-11-21T07:18:37;7.10;99.90
1417;DHT22;703;51.162;13.574;2023-11-21T07:21:03;7.10;99.90
1417;DHT22;703;51.162;13.574;2023-11-21T07:23:29;7.20;99.90
1417;DHT22;703;51.162;13.574;2023-11-21T07:25:54;7.10;99.90
1417;DHT22;703;51.162;13.574;2023-11-21T07:28:20;7.20;99.90
1417;DHT22;703;51.162;13.574;2023-11-21T07:30:45;7.20;99.90
1417;DHT22;703;51.162;13.574;2023-11-21T07:33:11;7.20;99.90
1417;DHT22;703;51.162;13.574;2023-11-21T07:35:36;7.20;99.90
1417;DHT22;703;51.162;13.574;2023-11-21T07:38:02;7.20;99.90
1417;DHT22;703;51.162;13.574;2023-11-21T07:40:27;7.20;99.90
1417;DHT22;703;51.162;13.574;2023-11-21T07:42:53;7.20;99.90
1417;DHT22;703;51.162;13.574;2023-11-21T07:45:18;7.20;99.90
1417;DHT22;703;51.162;13.574;2023-11-21T07:47:44;7.20;99.90
1417;DHT22;703;51.162;13.574;2023-11-21T07:50:10;7.30;99.90
1417;DHT22;703;51.162;13.574;2023-11-21T07:52:35;7.30;99.90
1417;DHT22;703;51.162;13.574;2023-11-21T07:55:01;7.30;99.90
1417;DHT22;703;51.162;13.574;2023-11-21T07:57:27;7.30;99.90
1417;DHT22;703;51.162;13.574;2023-11-21T07:59:52;7.30;99.90
1417;DHT22;703;51.162;13.574;2023-11-21T08:02:19;7.30;99.90
1417;DHT22;703;51.162;13.574;2023-11-21T08:04:44;7.30;99.90
1417;DHT22;703;51.162;13.574;2023-11-21T08:07:10;7.30;99.90
1417;DHT22;703;51.162;13.574;2023-11-21T08:09:36;7.20;99.90
1417;DHT22;703;51.162;13.574;2023-11-21T08:12:02;7.20;99.90
1417;DHT22;703;51.162;13.574;2023-11-21T08:14:28;7.30;99.90
1417;DHT22;703;51.162;13.574;2023-11-21T08:16:53;7.20;99.90
1417;DHT22;703;51.162;13.574;2023-11-21T08:19:23;7.20;99.90
1417;DHT22;703;51.162;13.574;2023-11-21T08:21:50;7.20;99.90
1417;DHT22;703;51.162;13.574;2023-11-21T08:24:16;7.20;99.90
1417;DHT22;703;51.162;13.574;2023-11-21T08:26:42;7.10;99.90
1417;DHT22;703;51.162;13.574;2023-11-21T08:29:08;7.00;99.90
1417;DHT22;703;51.162;13.574;2023-11-21T08:31:34;7.10;99.90
1417;DHT22;703;51.162;13.574;2023-11-21T08:33:59;7.00;99.90
1417;DHT22;703;51.162;13.574;2023-11-21T08:36:28;7.10;99.90
1417;DHT22;703;51.162;13.574;2023-11-21T08:38:53;7.10;99.90
1417;DHT22;703;51.162;13.574;2023-11-21T08:41:19;7.00;99.90
1417;DHT22;703;51.162;13.574;2023-11-21T08:43:50;7.10;99.90
1417;DHT22;703;51.162;13.574;2023-11-21T08:46:16;7.20;99.90
1417;DHT22;703;51.162;13.574;2023-11-21T08:48:43;7.20;99.90
1417;DHT22;703;51.162;13.574;2023-11-21T08:51:10;7.10;99.90
1417;DHT22;703;51.162;13.574;2023-11-21T08:53:37;7.20;99.90
1417;DHT22;703;51.162;13.574;2023-11-21T08:56:03;7.20;99.90
1417;DHT22;703;51.162;13.574;2023-11-21T08:58:30;7.20;99.90
1417;DHT22;703;51.162;13.574;2023-11-21T09:00:56;7.20;99.90
1417;DHT22;703;51.162;13.574;2023-11-21T09:03:21;7.20;99.90
1417;DHT22;703;51.162;13.574;2023-11-21T09:05:47;7.20;99.90
1417;DHT22;703;51.162;13.574;2023-11-21T09:08:12;6.70;99.90
1417;DHT22;703;51.162;13.574;2023-11-21T09:10:38;6.60;99.90
1417;DHT22;703;51.162;13.574;2023-11-21T09:13:04;6.50;99.90
1417;DHT22;703;51.162;13.574;2023-11-21T09:15:30;6.20;99.90
1417;DHT22;703;51.162;13.574;2023-11-21T09:17:55;6.20;99.90
1417;DHT22;703;51.162;13.574;2023-11-21T09:20:21;6.20;99.90
1417;DHT22;703;51.162;13.574;2023-11-21T09:22:48;6.20;99.90
1417;DHT22;703;51.162;13.574;2023-11-21T09:25:14;6.20;99.90
1417;DHT22;703;51.162;13.574;2023-11-21T09:27:40;6.30;99.90
1417;DHT22;703;51.162;13.574;2023-11-21T09:30:07;6.10;99.90
1417;DHT22;703;51.162;13.574;2023-11-21T09:32:35;6.10;99.90
1417;DHT22;703;51.162;13.574;2023-11-21T09:35:03;6.10;99.90
1417;DHT22;703;51.162;13.574;2023-11-21T09:37:28;6.00;99.90
1417;DHT22;703;51.162;13.574;2023-11-21T09:39:54;5.90;99.90
1417;DHT22;703;51.162;13.574;2023-11-21T09:42:27;5.80;99.90
1417;DHT22;703;51.162;13.574;2023-11-21T09:45:09;5.80;99.90
1417;DHT22;703;51.162;13.574;2023-11-21T09:47:39;5.90;99.90
1417;DHT22;703;51.162;13.574;2023-11-21T09:50:06;5.70;99.90
1417;DHT22;703;51.162;13.574;2023-11-21T09:52:54;5.70;99.90
1417;DHT22;703;51.162;13.574;2023-11-21T09:55:21;5.60;99.90
1417;DHT22;703;51.162;13.574;2023-11-21T09:57:47;5.60;99.90
1417;DHT22;703;51.162;13.574;2023-11-21T10:00:14;5.40;99.90
1417;DHT22;703;51.162;13.574;2023-11-21T10:02:43;5.50;99.90
1417;DHT22;703;51.162;13.574;2023-11-21T10:05:09;5.60;99.90
1417;DHT22;703;51.162;13.574;2023-11-21T10:07:39;5.60;99.90
1417;DHT22;703;51.162;13.574;2023-11-21T10:10:07;5.50;99.90
1417;DHT22;703;51.162;13.574;2023-11-21T10:12:33;5.60;99.90
1417;DHT22;703;51.162;13.574;2023-11-21T10:15:01;5.60;99.90
1417;DHT22;703;51.162;13.574;2023-11-21T10:17:28;5.50;99.90
1417;DHT22;703;51.162;13.574;2023-11-21T10:20:01;5.70;99.90
1417;DHT22;703;51.162;13.574;2023-11-21T10:22:31;5.30;99.90
1417;DHT22;703;51.162;13.574;2023-11-21T10:24:57;5.40;99.90
1417;DHT22;703;51.162;13.574;2023-11-21T10:27:22;5.40;99.90
1417;DHT22;703;51.162;13.574;2023-11-21T10:29:51;5.40;99.90
1417;DHT22;703;51.162;13.574;2023-11-21T10:32:16;5.40;99.90
1417;DHT22;703;51.162;13.574;2023-11-21T10:34:42;5.30;99.90
1417;DHT22;703;51.162;13.574;2023-11-21T10:37:13;5.30;99.90
1417;DHT22;703;51.162;13.574;2023-11-21T10:39:40;5.30;99.90
1417;DHT22;703;51.162;13.574;2023-11-21T10:42:09;5.50;99.90
1417;DHT22;703;51.162;13.574;2023-11-21T10:44:35;5.30;99.90
1417;DHT22;703;51.162;13.574;2023-11-21T10:47:01;5.30;99.90
1417;DHT22;703;51.162;13.574;2023-11-21T10:49:27;5.30;99.90
1417;DHT22;703;51.162;13.574;2023-11-21T10:51:54;5.30;99.90
1417;DHT22;703;51.162;13.574;2023-11-21T10:54:24;5.30;99.90
1417;DHT22;703;51.162;13.574;2023-11-21T10:56:53;5.20;99.90
1417;DHT22;703;51.162;13.574;2023-11-21T10:59:22;5.20;99.90
1417;DHT22;703;51.162;13.574;2023-11-21T11:01:50;5.20;99.90
1417;DHT22;703;51.162;13.574;2023-11-21T11:04:18;5.20;99.90
1417;DHT22;703;51.162;13.574;2023-11-21T11:06:53;5.20;99.90
1417;DHT22;703;51.162;13.574;2023-11-21T11:09:20;5.10;99.90
1417;DHT22;703;51.162;13.574;2023-11-21T11:11:46;5.20;99.90
1417;DHT22;703;51.162;13.574;2023-11-21T11:14:12;5.20;99.90
1417;DHT22;703;51.162;13.574;2023-11-21T11:16:41;5.00;99.90
1417;DHT22;703;51.162;13.574;2023-11-21T11:19:09;5.00;99.90
1417;DHT22;703;51.162;13.574;2023-11-21T11:21:45;5.00;99.90
1417;DHT22;703;51.162;13.574;2023-11-21T11:24:14;5.00;99.90
1417;DHT22;703;51.162;13.574;2023-11-21T11:26:58;5.00;99.90
1417;DHT22;703;51.162;13.574;2023-11-21T11:29:35;5.10;99.90
1417;DHT22;703;51.162;13.574;2023-11-21T11:32:39;5.00;99.90
1417;DHT22;703;51.162;13.574;2023-11-21T11:35:17;5.00;99.90
1417;DHT22;703;51.162;13.574;2023-11-21T11:37:44;5.10;99.90
1417;DHT22;703;51.162;13.574;2023-11-21T11:40:13;5.00;99.90
1417;DHT22;703;51.162;13.574;2023-11-21T11:42:38;5.10;99.90
1417;DHT22;703;51.162;13.574;2023-11-21T11:45:19;5.00;99.90
1417;DHT22;703;51.162;13.574;2023-11-21T11:47:47;5.00;99.90
1417;DHT22;703;51.162;13.574;2023-11-21T11:50:13;5.10;99.90
1417;DHT22;703;51.162;13.574;2023-11-21T11:52:42;5.00;99.90
1417;DHT22;703;51.162;13.574;2023-11-21T11:55:12;4.90;99.90
1417;DHT22;703;51.162;13.574;2023-11-21T11:57:45;5.00;99.90
1417;DHT22;703;51.162;13.574;2023-11-21T12:00:13;5.00;99.90
1417;DHT22;703;51.162;13.574;2023-11-21T12:02:44;4.90;99.90
1417;DHT22;703;51.162;13.574;2023-11-21T12:05:11;4.90;99.90
1417;DHT22;703;51.162;13.574;2023-11-21T12:07:57;5.10;99.90
1417;DHT22;703;51.162;13.574;2023-11-21T12:10:34;5.20;99.90
1417;DHT22;703;51.162;13.574;2023-11-21T12:13:05;5.10;99.90
1417;DHT22;703;51.162;13.574;2023-11-21T12:15:33;5.10;99.90
1417;DHT22;703;51.162;13.574;2023-11-21T12:17:59;5.10;99.90
1417;DHT22;703;51.162;13.574;2023-11-21T12:20:25;5.10;99.90
1417;DHT22;703;51.162;13.574;2023-11-21T12:22:59;5.10;99.90
1417;DHT22;703;51.162;13.574;2023-11-21T12:25:26;5.10;99.90
1417;DHT22;703;51.162;13.574;2023-11-21T12:27:54;5.10;99.90
1417;DHT22;703;51.162;13.574;2023-11-21T12:30:22;5.10;99.90
1417;DHT22;703;51.162;13.574;2023-11-21T12:32:53;5.10;99.90
1417;DHT22;703;51.162;13.574;2023-11-21T12:35:23;5.10;99.90
1417;DHT22;703;51.162;13.574;2023-11-21T12:37:50;5.10;99.90
1417;DHT22;703;51.162;13.574;2023-11-21T12:40:16;5.10;99.90
1417;DHT22;703;51.162;13.574;2023-11-21T12:42:44;5.10;99.90
1417;DHT22;703;51.162;13.574;2023-11-21T12:45:19;5.00;99.90
1417;DHT22;703;51.162;13.574;2023-11-21T12:47:47;5.00;99.90
1417;DHT22;703;51.162;13.574;2023-11-21T12:50:14;4.90;99.90
1417;DHT22;703;51.162;13.574;2023-11-21T12:52:44;4.90;99.90
1417;DHT22;703;51.162;13.574;2023-11-21T12:55:20;4.90;99.90
1417;DHT22;703;51.162;13.574;2023-11-21T12:57:53;4.80;99.90
1417;DHT22;703;51.162;13.574;2023-11-21T13:00:35;4.80;99.90
1417;DHT22;703;51.162;13.574;2023-11-21T13:03:07;4.70;99.90
1417;DHT22;703;51.162;13.574;2023-11-21T13:05:37;4.60;99.90
1417;DHT22;703;51.162;13.574;2023-11-21T13:08:04;4.60;99.90
1417;DHT22;703;51.162;13.574;2023-11-21T13:10:33;4.50;99.90
1417;DHT22;703;51.162;13.574;2023-11-21T13:13:02;4.50;99.90
1417;DHT22;703;51.162;13.574;2023-11-21T13:15:30;4.50;99.90
1417;DHT22;703;51.162;13.574;2023-11-21T13:17:57;4.40;99.90
1417;DHT22;703;51.162;13.574;2023-11-21T13:20:24;4.50;99.90
1417;DHT22;703;51.162;13.574;2023-11-21T13:22:51;4.40;99.90
1417;DHT22;703;51.162;13.574;2023-11-21T13:25:23;4.40;99.90
1417;DHT22;703;51.162;13.574;2023-11-21T13:27:49;4.40;99.90
1417;DHT22;703;51.162;13.574;2023-11-21T13:30:16;4.30;99.90
1417;DHT22;703;51.162;13.574;2023-11-21T13:32:45;4.30;99.90
1417;DHT22;703;51.162;13.574;2023-11-21T13:35:12;4.30;99.90
1417;DHT22;703;51.162;13.574;2023-11-21T13:37:48;4.20;99.90
1417;DHT22;703;51.162;13.574;2023-11-21T13:40:15;4.20;99.90
1417;DHT22;703;51.162;13.574;2023-11-21T13:42:45;4.10;99.90
1417;DHT22;703;51.162;13.574;2023-11-21T13:45:11;4.00;99.90
1417;DHT22;703;51.162;13.574;2023-11-21T13:47:38;4.10;99.90
1417;DHT22;703;51.162;13.574;2023-11-21T13:50:04;4.10;99.90
1417;DHT22;703;51.162;13.574;2023-11-21T13:52:33;4.00;99.90
1417;DHT22;703;51.162;13.574;2023-11-21T13:55:01;3.90;99.90
1417;DHT22;703;51.162;13.574;2023-11-21T13:57:31;3.90;99.90
1417;DHT22;703;51.162;13.574;2023-11-21T13:59:58;3.90;99.90
1417;DHT22;703;51.162;13.574;2023-11-21T14:02:24;3.90;99.90
1417;DHT22;703;51.162;13.574;2023-11-21T14:04:57;4.00;99.90
1417;DHT22;703;51.162;13.574;2023-11-21T14:07:26;3.80;99.90
1417;DHT22;703;51.162;13.574;2023-11-21T14:09:58;3.70;99.90
1417;DHT22;703;51.162;13.574;2023-11-21T14:12:24;3.80;99.90
1417;DHT22;703;51.162;13.574;2023-11-21T14:14:50;3.80;99.90
1417;DHT22;703;51.162;13.574;2023-11-21T14:17:15;3.80;99.90
1417;DHT22;703;51.162;13.574;2023-11-21T14:19:41;3.80;99.90
1417;DHT22;703;51.162;13.574;2023-11-21T14:22:10;3.70;99.90
1417;DHT22;703;51.162;13.574;2023-11-21T14:24:35;3.80;99.90
1417;DHT22;703;51.162;13.574;2023-11-21T14:27:02;3.70;99.90
1417;DHT22;703;51.162;13.574;2023-11-21T14:29:28;3.70;99.90
1417;DHT22;703;51.162;13.574;2023-11-21T14:31:55;3.60;99.90
1417;DHT22;703;51.162;13.574;2023-11-21T14:34:23;3.50;99.90
1417;DHT22;703;51.162;13.574;2023-11-21T14:36:50;3.40;99.90
1417;DHT22;703;51.162;13.574;2023-11-21T14:39:15;3.40;99.90
1417;DHT22;703;51.162;13.574;2023-11-21T14:41:53;3.50;99.90
1417;DHT22;703;51.162;13.574;2023-11-21T14:44:21;3.50;99.90
1417;DHT22;703;51.162;13.574;2023-11-21T14:46:50;3.40;99.90
1417;DHT22;703;51.162;13.574;2023-11-21T14:49:16;3.30;99.90
1417;DHT22;703;51.162;13.574;2023-11-21T14:51:46;5.60;99.90
1417;DHT22;703;51.162;13.574;2023-11-21T14:54:37;3.40;99.90
1417;DHT22;703;51.162;13.574;2023-11-21T14:57:08;3.40;99.90
1417;DHT22;703;51.162;13.574;2023-11-21T14:59:47;3.60;99.90
1417;DHT22;703;51.162;13.574;2023-11-21T15:02:17;3.50;99.90
1417;DHT22;703;51.162;13.574;2023-11-21T15:04:48;3.50;99.90
1417;DHT22;703;51.162;13.574;2023-11-21T15:07:16;3.40;99.90
1417;DHT22;703;51.162;13.574;2023-11-21T15:09:42;3.50;99.90
1417;DHT22;703;51.162;13.574;2023-11-21T15:12:09;3.50;99.90
1417;DHT22;703;51.162;13.574;2023-11-21T15:14:46;3.50;99.90
1417;DHT22;703;51.162;13.574;2023-11-21T15:17:14;3.40;99.90
1417;DHT22;703;51.162;13.574;2023-11-21T15:19:53;3.40;99.90
1417;DHT22;703;51.162;13.574;2023-11-21T15:22:19;3.50;99.90
1417;DHT22;703;51.162;13.574;2023-11-21T15:24:45;3.30;99.90
1417;DHT22;703;51.162;13.574;2023-11-21T15:27:13;3.30;99.90
1417;DHT22;703;51.162;13.574;2023-11-21T15:29:39;3.40;99.90
1417;DHT22;703;51.162;13.574;2023-11-21T15:32:08;3.30;99.90
1417;DHT22;703;51.162;13.574;2023-11-21T15:34:35;3.30;99.90
1417;DHT22;703;51.162;13.574;2023-11-21T15:37:01;3.30;99.90
1417;DHT22;703;51.162;13.574;2023-11-21T15:39:26;3.20;99.90
1417;DHT22;703;51.162;13.574;2023-11-21T15:41:59;3.20;99.90
1417;DHT22;703;51.162;13.574;2023-11-21T15:44:28;3.20;99.90
1417;DHT22;703;51.162;13.574;2023-11-21T15:46:54;3.10;99.90
1417;DHT22;703;51.162;13.574;2023-11-21T15:49:19;3.20;99.90
1417;DHT22;703;51.162;13.574;2023-11-21T15:51:48;3.20;99.90
1417;DHT22;703;51.162;13.574;2023-11-21T15:54:19;3.10;99.90
1417;DHT22;703;51.162;13.574;2023-11-21T15:56:46;3.20;99.90
1417;DHT22;703;51.162;13.574;2023-11-21T15:59:12;3.10;99.90
1417;DHT22;703;51.162;13.574;2023-11-21T16:01:39;3.20;99.90
1417;DHT22;703;51.162;13.574;2023-11-21T16:04:10;3.20;99.90
1417;DHT22;703;51.162;13.574;2023-11-21T16:06:37;3.10;99.90
1417;DHT22;703;51.162;13.574;2023-11-21T16:09:05;2.90;99.90
1417;DHT22;703;51.162;13.574;2023-11-21T16:11:31;3.00;99.90
1417;DHT22;703;51.162;13.574;2023-11-21T16:13:58;3.10;99.90
1417;DHT22;703;51.162;13.574;2023-11-21T16:16:24;3.00;99.90
1417;DHT22;703;51.162;13.574;2023-11-21T16:18:50;3.10;99.90
1417;DHT22;703;51.162;13.574;2023-11-21T16:21:16;3.00;99.90